createdAt,value
2018-12-10T00:00:15.483Z,999.52
2018-12-10T00:01:15.511Z,999.58
2018-12-10T00:02:15.534Z,999.53
2018-12-10T00:03:15.546Z,999.64
2018-12-10T00:04:36.585Z,999.61
2018-12-10T00:05:15.593Z,999.64
2018-12-10T00:06:15.638Z,999.64
2018-12-10T00:07:15.621Z,999.62
2018-12-10T00:08:15.790Z,999.73
2018-12-10T00:09:15.676Z,999.64
2018-12-10T00:10:41.517Z,999.76
2018-12-10T00:11:15.777Z,999.65
2018-12-10T00:12:15.764Z,999.77
2018-12-10T00:13:15.748Z,999.81
2018-12-10T00:14:15.832Z,999.82
2018-12-10T00:15:15.800Z,999.71
2018-12-10T00:16:36.834Z,999.79
2018-12-10T00:17:15.878Z,999.87
2018-12-10T00:18:15.858Z,999.83
2018-12-10T00:19:15.884Z,999.88
2018-12-10T00:20:15.906Z,999.88
2018-12-10T00:21:15.934Z,999.84
2018-12-10T00:22:36.971Z,999.87
2018-12-10T00:23:15.962Z,999.89
2018-12-10T00:24:15.994Z,999.91
2018-12-10T00:25:16.010Z,999.94
2018-12-10T00:26:16.033Z,999.92
2018-12-10T00:27:16.049Z,1000.01
2018-12-10T00:28:37.090Z,999.98
2018-12-10T00:29:16.095Z,1000.01
2018-12-10T00:30:16.115Z,1000.00
2018-12-10T00:31:16.169Z,1000.05
2018-12-10T00:32:16.147Z,1000.05
2018-12-10T00:33:16.188Z,1000.06
2018-12-10T00:34:37.201Z,1000.16
2018-12-10T00:35:16.224Z,1000.17
2018-12-10T00:36:16.231Z,1000.19
2018-12-10T00:37:16.252Z,1000.21
2018-12-10T00:38:16.270Z,1000.21
2018-12-10T00:39:16.293Z,1000.21
2018-12-10T00:40:37.325Z,1000.33
2018-12-10T00:41:16.330Z,1000.30
2018-12-10T00:42:16.368Z,1000.36
2018-12-10T00:43:16.385Z,1000.37
2018-12-10T00:44:16.402Z,1000.40
2018-12-10T00:45:16.416Z,1000.41
2018-12-10T00:46:37.443Z,1000.52
2018-12-10T00:47:16.453Z,1000.48
2018-12-10T00:48:16.482Z,1000.47
2018-12-10T00:49:16.495Z,1000.47
2018-12-10T00:50:16.525Z,1000.45
2018-12-10T00:51:16.545Z,1000.51
2018-12-10T00:52:37.596Z,1000.52
2018-12-10T00:53:16.716Z,1000.51
2018-12-10T00:54:16.645Z,1000.58
2018-12-10T00:55:16.639Z,1000.53
2018-12-10T00:56:16.659Z,1000.58
2018-12-10T00:57:16.660Z,1000.59
2018-12-10T00:58:37.695Z,1000.59
2018-12-10T00:59:16.714Z,1000.61
2018-12-10T01:00:16.733Z,1000.68
2018-12-10T01:01:16.745Z,1000.64
2018-12-10T01:02:16.761Z,1000.59
2018-12-10T01:03:16.799Z,1000.65
2018-12-10T01:04:37.817Z,1000.77
2018-12-10T01:05:16.819Z,1000.74
2018-12-10T01:06:16.852Z,1000.84
2018-12-10T01:07:16.862Z,1000.79
2018-12-10T01:08:16.902Z,1000.81
2018-12-10T01:09:16.911Z,1000.87
2018-12-10T01:10:37.940Z,1000.77
2018-12-10T01:11:16.954Z,1000.81
2018-12-10T01:12:16.972Z,1000.86
2018-12-10T01:13:17.003Z,1000.85
2018-12-10T01:14:17.022Z,1000.88
2018-12-10T01:15:17.026Z,1000.88
2018-12-10T01:16:38.066Z,1000.97
2018-12-10T01:17:17.069Z,1000.93
2018-12-10T01:18:17.110Z,1000.97
2018-12-10T01:19:17.114Z,1000.98
2018-12-10T01:20:17.132Z,1000.98
2018-12-10T01:21:17.158Z,1000.94
2018-12-10T01:22:38.197Z,1000.99
2018-12-10T01:23:17.217Z,1001.10
2018-12-10T01:24:17.227Z,1001.03
2018-12-10T01:25:17.243Z,1001.05
2018-12-10T01:26:17.261Z,1001.11
2018-12-10T01:27:17.277Z,1001.10
2018-12-10T01:28:38.345Z,1001.10
2018-12-10T01:29:17.315Z,1001.11
2018-12-10T01:30:17.358Z,1001.09
2018-12-10T01:31:17.373Z,1001.21
2018-12-10T01:32:17.386Z,1001.27
2018-12-10T01:33:17.413Z,1001.21
2018-12-10T01:34:38.454Z,1001.21
2018-12-10T01:35:17.439Z,1001.28
2018-12-10T01:36:17.456Z,1001.31
2018-12-10T01:37:17.492Z,1001.33
2018-12-10T01:38:17.521Z,1001.31
2018-12-10T01:39:17.568Z,1001.26
2018-12-10T01:40:38.573Z,1001.21
2018-12-10T01:41:17.584Z,1001.28
2018-12-10T01:42:17.609Z,1001.33
2018-12-10T01:43:17.604Z,1001.27
2018-12-10T01:44:17.699Z,1001.36
2018-12-10T01:45:17.669Z,1001.38
2018-12-10T01:46:38.682Z,1001.30
2018-12-10T01:47:17.780Z,1001.30
2018-12-10T01:48:17.726Z,1001.34
2018-12-10T01:49:17.745Z,1001.39
2018-12-10T01:50:17.767Z,1001.33
2018-12-10T01:51:17.775Z,1001.39
2018-12-10T01:52:38.824Z,1001.44
2018-12-10T01:53:17.832Z,1001.39
2018-12-10T01:54:17.850Z,1001.43
2018-12-10T01:55:17.861Z,1001.39
2018-12-10T01:56:17.894Z,1001.51
2018-12-10T01:57:17.906Z,1001.59
2018-12-10T01:58:38.940Z,1001.54
2018-12-10T01:59:17.978Z,1001.59
2018-12-10T02:00:17.951Z,1001.52
2018-12-10T02:01:17.966Z,1001.56
2018-12-10T02:02:18.004Z,1001.63
2018-12-10T02:03:18.020Z,1001.59
2018-12-10T02:04:39.054Z,1001.52
2018-12-10T02:05:18.060Z,1001.56
2018-12-10T02:06:18.077Z,1001.55
2018-12-10T02:07:18.107Z,1001.54
2018-12-10T02:08:18.118Z,1001.55
2018-12-10T02:09:18.163Z,1001.58
2018-12-10T02:10:39.185Z,1001.60
2018-12-10T02:11:18.213Z,1001.63
2018-12-10T02:12:18.215Z,1001.62
2018-12-10T02:13:18.220Z,1001.67
2018-12-10T02:14:18.237Z,1001.60
2018-12-10T02:15:18.264Z,1001.64
2018-12-10T02:16:39.299Z,1001.66
2018-12-10T02:17:18.317Z,1001.78
2018-12-10T02:18:18.329Z,1001.71
2018-12-10T02:19:18.377Z,1001.76
2018-12-10T02:20:18.363Z,1001.77
2018-12-10T02:21:18.379Z,1001.65
2018-12-10T02:22:39.409Z,1001.77
2018-12-10T02:23:18.427Z,1001.77
2018-12-10T02:24:18.443Z,1001.81
2018-12-10T02:25:18.631Z,1001.77
2018-12-10T02:26:18.486Z,1001.85
2018-12-10T02:27:18.541Z,1001.89
2018-12-10T02:28:39.553Z,1001.76
2018-12-10T02:29:18.541Z,1001.76
2018-12-10T02:30:18.582Z,1001.80
2018-12-10T02:31:18.646Z,1001.88
2018-12-10T02:32:18.738Z,1001.84
2018-12-10T02:33:18.639Z,1001.78
2018-12-10T02:34:39.655Z,1001.80
2018-12-10T02:35:18.670Z,1001.85
2018-12-10T02:36:18.681Z,1001.90
2018-12-10T02:37:18.707Z,1001.76
2018-12-10T02:38:18.772Z,1001.92
2018-12-10T02:39:18.744Z,1001.92
2018-12-10T02:40:39.776Z,1001.97
2018-12-10T02:41:18.792Z,1001.90
2018-12-10T02:42:18.821Z,1001.92
2018-12-10T02:43:18.836Z,1001.87
2018-12-10T02:44:18.842Z,1001.89
2018-12-10T02:45:18.872Z,1001.90
2018-12-10T02:46:39.915Z,1001.95
2018-12-10T02:47:18.903Z,1002.01
2018-12-10T02:48:18.934Z,1001.95
2018-12-10T02:49:19.051Z,1001.97
2018-12-10T02:50:18.991Z,1002.02
2018-12-10T02:51:18.988Z,1002.00
2018-12-10T02:52:40.017Z,1002.02
2018-12-10T02:53:19.047Z,1002.04
2018-12-10T02:54:19.047Z,1002.05
2018-12-10T02:55:19.071Z,1002.13
2018-12-10T02:56:19.133Z,1002.10
2018-12-10T02:57:19.115Z,1002.13
2018-12-10T02:58:40.199Z,1002.11
2018-12-10T02:59:19.153Z,1002.20
2018-12-10T03:00:19.196Z,1002.14
2018-12-10T03:01:19.188Z,1002.17
2018-12-10T03:02:19.207Z,1002.17
2018-12-10T03:03:19.250Z,1002.18
2018-12-10T03:04:40.277Z,1002.22
2018-12-10T03:05:19.272Z,1002.14
2018-12-10T03:06:19.289Z,1002.18
2018-12-10T03:07:19.304Z,1002.10
2018-12-10T03:08:19.365Z,1002.18
2018-12-10T03:09:19.354Z,1002.19
2018-12-10T03:10:40.397Z,1002.26
2018-12-10T03:11:19.409Z,1002.17
2018-12-10T03:12:19.442Z,1002.22
2018-12-10T03:13:19.452Z,1002.18
2018-12-10T03:14:19.465Z,1002.16
2018-12-10T03:15:19.479Z,1002.18
2018-12-10T03:16:40.505Z,1002.29
2018-12-10T03:17:19.524Z,1002.32
2018-12-10T03:18:19.534Z,1002.24
2018-12-10T03:19:19.567Z,1002.24
2018-12-10T03:20:19.573Z,1002.38
2018-12-10T03:21:19.617Z,1002.28
2018-12-10T03:22:40.643Z,1002.31
2018-12-10T03:23:19.637Z,1002.29
2018-12-10T03:24:19.655Z,1002.32
2018-12-10T03:25:19.696Z,1002.41
2018-12-10T03:26:19.703Z,1002.40
2018-12-10T03:27:19.717Z,1002.44
2018-12-10T03:28:40.753Z,1002.52
2018-12-10T03:29:19.763Z,1002.50
2018-12-10T03:30:19.774Z,1002.56
2018-12-10T03:31:19.803Z,1002.54
2018-12-10T03:32:19.842Z,1002.56
2018-12-10T03:33:19.975Z,1002.59
2018-12-10T03:34:40.881Z,1002.57
2018-12-10T03:35:19.896Z,1002.58
2018-12-10T03:36:19.935Z,1002.62
2018-12-10T03:37:19.928Z,1002.54
2018-12-10T03:38:19.952Z,1002.56
2018-12-10T03:39:19.974Z,1002.64
2018-12-10T03:40:40.996Z,1002.53
2018-12-10T03:41:20.014Z,1002.63
2018-12-10T03:42:20.024Z,1002.66
2018-12-10T03:43:20.049Z,1002.65
2018-12-10T03:44:20.055Z,1002.66
2018-12-10T03:45:20.087Z,1002.62
2018-12-10T03:46:41.124Z,1002.68
2018-12-10T03:47:20.125Z,1002.67
2018-12-10T03:48:20.145Z,1002.73
2018-12-10T03:49:20.255Z,1002.72
2018-12-10T03:50:20.202Z,1002.73
2018-12-10T03:51:20.224Z,1002.82
2018-12-10T03:52:41.234Z,1002.72
2018-12-10T03:53:20.255Z,1002.88
2018-12-10T03:54:20.290Z,1002.88
2018-12-10T03:55:20.295Z,1002.84
2018-12-10T03:56:20.304Z,1002.84
2018-12-10T03:59:02.429Z,1002.85
2018-12-10T03:59:41.433Z,1002.90
2018-12-10T04:00:41.453Z,1002.87
2018-12-10T04:01:41.469Z,1002.85
2018-12-10T04:02:41.494Z,1002.92
2018-12-10T04:03:41.512Z,1002.92
2018-12-10T04:05:02.549Z,1003.00
2018-12-10T04:05:41.550Z,1003.04
2018-12-10T04:06:41.574Z,1003.03
2018-12-10T04:07:41.622Z,1003.11
2018-12-10T04:08:41.621Z,1003.10
2018-12-10T04:09:41.630Z,1003.15
2018-12-10T04:11:02.671Z,1003.16
2018-12-10T04:11:41.670Z,1003.15
2018-12-10T04:12:41.697Z,1003.16
2018-12-10T04:13:41.713Z,1003.19
2018-12-10T04:14:41.745Z,1003.28
2018-12-10T04:15:41.751Z,1003.20
2018-12-10T04:17:02.801Z,1003.13
2018-12-10T04:17:41.793Z,1003.19
2018-12-10T04:18:41.810Z,1003.26
2018-12-10T04:19:41.837Z,1003.31
2018-12-10T04:20:41.873Z,1003.31
2018-12-10T04:21:41.876Z,1003.31
2018-12-10T04:23:02.910Z,1003.31
2018-12-10T04:23:41.911Z,1003.34
2018-12-10T04:24:41.929Z,1003.31
2018-12-10T04:25:41.974Z,1003.30
2018-12-10T04:26:41.976Z,1003.28
2018-12-10T04:27:42.010Z,1003.35
2018-12-10T04:29:03.056Z,1003.36
2018-12-10T04:29:42.043Z,1003.34
2018-12-10T04:30:42.064Z,1003.26
2018-12-10T04:31:42.083Z,1003.36
2018-12-10T04:32:42.108Z,1003.35
2018-12-10T04:33:42.118Z,1003.33
2018-12-10T04:35:03.158Z,1003.35
2018-12-10T04:35:42.161Z,1003.34
2018-12-10T04:36:42.174Z,1003.35
2018-12-10T04:37:42.196Z,1003.37
2018-12-10T04:38:42.225Z,1003.44
2018-12-10T04:39:42.231Z,1003.49
2018-12-10T04:41:03.286Z,1003.48
2018-12-10T04:41:42.289Z,1003.46
2018-12-10T04:42:42.305Z,1003.47
2018-12-10T04:43:42.319Z,1003.48
2018-12-10T04:44:42.396Z,1003.52
2018-12-10T04:45:42.379Z,1003.56
2018-12-10T04:47:03.407Z,1003.41
2018-12-10T04:47:42.391Z,1003.57
2018-12-10T04:48:42.428Z,1003.54
2018-12-10T04:49:42.443Z,1003.62
2018-12-10T04:50:42.489Z,1003.54
2018-12-10T04:51:42.491Z,1003.58
2018-12-10T04:53:03.531Z,1003.61
2018-12-10T04:53:42.516Z,1003.61
2018-12-10T04:54:42.549Z,1003.63
2018-12-10T04:55:42.582Z,1003.63
2018-12-10T04:56:42.597Z,1003.62
2018-12-10T04:57:42.618Z,1003.62
2018-12-10T04:59:03.638Z,1003.66
2018-12-10T04:59:42.648Z,1003.69
2018-12-10T05:00:42.658Z,1003.73
2018-12-10T05:01:42.701Z,1003.65
2018-12-10T05:02:42.702Z,1003.68
2018-12-10T05:03:42.729Z,1003.61
2018-12-10T05:05:03.748Z,1003.76
2018-12-10T05:05:42.903Z,1003.67
2018-12-10T05:06:42.784Z,1003.72
2018-12-10T05:09:05.926Z,1003.80
2018-12-10T05:10:05.930Z,1003.74
2018-12-10T05:11:27.012Z,1003.86
2018-12-10T05:12:06.019Z,1003.85
2018-12-10T05:13:06.021Z,1003.80
2018-12-10T05:14:06.037Z,1003.86
2018-12-10T05:15:06.078Z,1003.91
2018-12-10T05:16:06.077Z,1003.92
2018-12-10T05:17:27.136Z,1003.90
2018-12-10T05:18:06.128Z,1003.97
2018-12-10T05:19:06.136Z,1003.97
2018-12-10T05:20:06.137Z,1003.98
2018-12-10T05:21:06.184Z,1003.92
2018-12-10T05:22:06.188Z,1003.99
2018-12-10T05:23:27.338Z,1004.00
2018-12-10T05:24:06.230Z,1004.00
2018-12-10T05:25:06.240Z,1004.06
2018-12-10T05:26:06.269Z,1004.04
2018-12-10T05:27:06.292Z,1003.98
2018-12-10T05:28:06.303Z,1003.99
2018-12-10T05:29:27.327Z,1004.05
2018-12-10T05:30:06.460Z,1004.07
2018-12-10T05:31:06.381Z,1004.18
2018-12-10T05:32:06.404Z,1004.15
2018-12-10T05:33:06.397Z,1004.14
2018-12-10T05:34:06.441Z,1004.06
2018-12-10T05:35:27.479Z,1004.07
2018-12-10T05:36:06.461Z,1004.03
2018-12-10T05:37:06.497Z,1004.11
2018-12-10T05:38:06.524Z,1004.09
2018-12-10T05:39:06.519Z,1004.07
2018-12-10T05:40:06.560Z,1004.28
2018-12-10T05:41:27.587Z,1004.06
2018-12-10T05:42:06.603Z,1004.20
2018-12-10T05:43:06.629Z,1004.21
2018-12-10T05:44:06.623Z,1004.18
2018-12-10T05:45:06.657Z,1004.21
2018-12-10T05:46:06.673Z,1004.29
2018-12-10T05:47:27.711Z,1004.19
2018-12-10T05:48:06.711Z,1004.33
2018-12-10T05:49:06.728Z,1004.23
2018-12-10T05:50:06.763Z,1004.30
2018-12-10T05:51:06.794Z,1004.27
2018-12-10T05:52:06.784Z,1004.33
2018-12-10T05:53:27.841Z,1004.25
2018-12-10T05:54:06.822Z,1004.31
2018-12-10T05:55:06.859Z,1004.27
2018-12-10T05:56:06.970Z,1004.29
2018-12-10T05:57:06.949Z,1004.42
2018-12-10T05:58:06.920Z,1004.36
2018-12-10T05:59:27.978Z,1004.35
2018-12-10T06:00:06.971Z,1004.37
2018-12-10T06:01:06.990Z,1004.36
2018-12-10T06:02:06.980Z,1004.38
2018-12-10T06:03:07.008Z,1004.45
2018-12-10T06:04:07.066Z,1004.36
2018-12-10T06:05:28.087Z,1004.39
2018-12-10T06:06:07.071Z,1004.40
2018-12-10T06:07:07.075Z,1004.39
2018-12-10T06:08:07.179Z,1004.46
2018-12-10T06:09:07.130Z,1004.45
2018-12-10T06:10:07.253Z,1004.42
2018-12-10T06:11:28.184Z,1004.47
2018-12-10T06:12:07.196Z,1004.38
2018-12-10T06:13:07.265Z,1004.47
2018-12-10T06:14:07.237Z,1004.44
2018-12-10T06:15:07.264Z,1004.46
2018-12-10T06:16:07.270Z,1004.48
2018-12-10T06:17:28.296Z,1004.57
2018-12-10T06:18:07.314Z,1004.56
2018-12-10T06:19:07.323Z,1004.52
2018-12-10T06:20:07.351Z,1004.57
2018-12-10T06:21:07.369Z,1004.62
2018-12-10T06:22:07.397Z,1004.65
2018-12-10T06:23:28.463Z,1004.60
2018-12-10T06:24:07.438Z,1004.60
2018-12-10T06:25:07.474Z,1004.74
2018-12-10T06:26:07.483Z,1004.70
2018-12-10T06:27:07.482Z,1004.66
2018-12-10T06:28:07.564Z,1004.73
2018-12-10T06:29:28.573Z,1004.80
2018-12-10T06:30:07.582Z,1004.76
2018-12-10T06:31:07.712Z,1004.84
2018-12-10T06:32:07.598Z,1004.90
2018-12-10T06:33:07.631Z,1004.79
2018-12-10T06:34:09.185Z,1004.95
2018-12-10T06:35:28.698Z,1004.92
2018-12-10T06:36:07.694Z,1004.91
2018-12-10T06:37:07.685Z,1004.93
2018-12-10T06:38:07.750Z,1005.01
2018-12-10T06:39:07.732Z,1004.96
2018-12-10T06:40:07.794Z,1005.07
2018-12-10T06:41:28.783Z,1005.01
2018-12-10T06:42:08.387Z,1005.01
2018-12-10T06:43:07.804Z,1005.02
2018-12-10T06:44:07.858Z,1004.90
2018-12-10T06:45:07.855Z,1004.92
2018-12-10T06:46:07.885Z,1004.96
2018-12-10T06:47:28.921Z,1005.01
2018-12-10T06:49:32.449Z,1005.05
2018-12-10T06:50:32.448Z,1005.14
2018-12-10T06:51:32.464Z,1005.22
2018-12-10T06:52:32.493Z,1005.17
2018-12-10T06:53:53.527Z,1005.19
2018-12-10T06:54:32.598Z,1005.26
2018-12-10T06:55:32.564Z,1005.33
2018-12-10T06:56:32.569Z,1005.34
2018-12-10T06:57:32.583Z,1005.41
2018-12-10T06:58:32.652Z,1005.36
2018-12-10T06:59:53.665Z,1005.41
2018-12-10T07:00:32.657Z,1005.46
2018-12-10T07:01:32.666Z,1005.48
2018-12-10T07:02:32.699Z,1005.52
2018-12-10T07:03:32.736Z,1005.54
2018-12-10T07:04:32.913Z,1005.50
2018-12-10T07:05:53.775Z,1005.49
2018-12-10T07:06:32.779Z,1005.43
2018-12-10T07:07:32.779Z,1005.42
2018-12-10T07:08:32.822Z,1005.44
2018-12-10T07:09:32.833Z,1005.39
2018-12-10T07:10:32.871Z,1005.41
2018-12-10T07:11:53.873Z,1005.45
2018-12-10T07:12:32.880Z,1005.43
2018-12-10T07:13:32.929Z,1005.41
2018-12-10T07:14:32.926Z,1005.50
2018-12-10T07:15:32.951Z,1005.40
2018-12-10T07:16:32.985Z,1005.48
2018-12-10T07:17:54.009Z,1005.55
2018-12-10T07:18:33.023Z,1005.46
2018-12-10T07:19:33.035Z,1005.52
2018-12-10T07:20:33.045Z,1005.47
2018-12-10T07:21:33.085Z,1005.51
2018-12-10T07:22:33.086Z,1005.51
2018-12-10T07:23:54.126Z,1005.52
2018-12-10T07:24:33.121Z,1005.56
2018-12-10T07:25:33.168Z,1005.46
2018-12-10T07:26:33.183Z,1005.66
2018-12-10T07:27:33.325Z,1005.54
2018-12-10T07:28:33.196Z,1005.53
2018-12-10T07:29:54.239Z,1005.57
2018-12-10T07:30:41.254Z,1005.56
2018-12-10T07:31:33.256Z,1005.59
2018-12-10T07:32:33.296Z,1005.69
2018-12-10T07:33:33.303Z,1005.62
2018-12-10T07:34:33.335Z,1005.62
2018-12-10T07:35:54.378Z,1005.63
2018-12-10T07:36:33.360Z,1005.64
2018-12-10T07:37:33.374Z,1005.76
2018-12-10T07:38:33.412Z,1005.61
2018-12-10T07:39:33.420Z,1005.74
2018-12-10T07:40:33.444Z,1005.68
2018-12-10T07:41:54.487Z,1005.66
2018-12-10T07:42:33.477Z,1005.70
2018-12-10T07:43:33.516Z,1005.68
2018-12-10T07:44:33.519Z,1005.78
2018-12-10T07:45:33.542Z,1005.67
2018-12-10T07:46:33.567Z,1005.71
2018-12-10T07:47:54.605Z,1005.68
2018-12-10T07:48:33.614Z,1005.74
2018-12-10T07:49:33.631Z,1005.70
2018-12-10T07:50:33.640Z,1005.67
2018-12-10T07:51:33.679Z,1005.73
2018-12-10T07:52:33.683Z,1005.76
2018-12-10T07:53:54.714Z,1005.77
2018-12-10T07:54:33.734Z,1005.73
2018-12-10T07:55:33.741Z,1005.80
2018-12-10T07:56:33.779Z,1005.75
2018-12-10T07:57:33.783Z,1005.77
2018-12-10T07:58:33.787Z,1005.77
2018-12-10T07:59:54.840Z,1005.84
2018-12-10T08:00:33.841Z,1005.81
2018-12-10T08:01:33.858Z,1005.74
2018-12-10T08:02:33.885Z,1005.78
2018-12-10T08:03:33.895Z,1005.81
2018-12-10T08:04:33.935Z,1005.79
2018-12-10T08:05:54.977Z,1005.81
2018-12-10T08:06:33.951Z,1005.80
2018-12-10T08:07:33.996Z,1005.79
2018-12-10T08:08:34.001Z,1005.83
2018-12-10T08:09:34.039Z,1005.87
2018-12-10T08:10:34.041Z,1005.87
2018-12-10T08:11:55.078Z,1005.92
2018-12-10T08:12:34.092Z,1005.86
2018-12-10T08:13:34.110Z,1005.86
2018-12-10T08:14:34.115Z,1005.90
2018-12-10T08:15:34.142Z,1005.79
2018-12-10T08:16:34.156Z,1005.83
2018-12-10T08:17:55.196Z,1005.93
2018-12-10T08:18:34.259Z,1005.94
2018-12-10T08:19:34.209Z,1005.93
2018-12-10T08:20:34.287Z,1006.05
2018-12-10T08:21:34.258Z,1005.99
2018-12-10T08:22:34.266Z,1005.95
2018-12-10T08:23:55.301Z,1005.93
2018-12-10T08:24:34.313Z,1005.94
2018-12-10T08:25:34.330Z,1006.03
2018-12-10T08:26:34.365Z,1006.02
2018-12-10T08:27:34.400Z,1006.03
2018-12-10T08:28:34.401Z,1006.03
2018-12-10T08:29:55.447Z,1006.05
2018-12-10T08:30:34.435Z,1006.12
2018-12-10T08:31:34.455Z,1006.08
2018-12-10T08:32:34.467Z,1006.06
2018-12-10T08:33:34.487Z,1006.07
2018-12-10T08:35:42.173Z,1006.04
2018-12-10T08:35:55.561Z,1006.14
2018-12-10T08:36:34.546Z,1006.00
2018-12-10T08:37:34.579Z,1006.06
2018-12-10T08:38:34.585Z,1005.97
2018-12-10T08:39:34.627Z,1006.00
2018-12-10T08:40:34.650Z,1006.02
2018-12-10T08:41:55.665Z,1006.12
2018-12-10T08:42:34.679Z,1006.08
2018-12-10T08:43:34.694Z,1006.10
2018-12-10T08:44:34.700Z,1006.15
2018-12-10T08:45:34.743Z,1006.03
2018-12-10T08:46:34.749Z,1006.12
2018-12-10T08:47:55.786Z,1006.07
2018-12-10T08:48:34.830Z,1006.13
2018-12-10T08:49:34.810Z,1006.15
2018-12-10T08:50:34.986Z,1006.02
2018-12-10T08:51:34.883Z,1006.07
2018-12-10T08:52:34.900Z,1006.29
2018-12-10T08:53:55.916Z,1006.10
2018-12-10T08:54:34.906Z,1006.07
2018-12-10T08:55:34.948Z,1006.01
2018-12-10T08:56:35.006Z,1006.06
2018-12-10T08:57:34.965Z,1006.05
2018-12-10T08:58:34.984Z,1006.11
2018-12-10T08:59:56.026Z,1006.08
2018-12-10T09:00:35.029Z,1006.12
2018-12-10T09:01:35.054Z,1006.14
2018-12-10T09:02:35.070Z,1006.24
2018-12-10T09:03:35.094Z,1006.25
2018-12-10T09:04:36.694Z,1006.24
2018-12-10T09:05:56.133Z,1006.16
2018-12-10T09:06:35.180Z,1006.30
2018-12-10T09:07:35.159Z,1006.24
2018-12-10T09:08:35.223Z,1006.21
2018-12-10T09:09:35.213Z,1006.28
2018-12-10T09:10:35.232Z,1006.33
2018-12-10T09:11:56.314Z,1006.37
2018-12-10T09:12:35.276Z,1006.24
2018-12-10T09:13:35.311Z,1006.24
2018-12-10T09:14:35.304Z,1006.26
2018-12-10T09:15:35.335Z,1006.25
2018-12-10T09:16:35.355Z,1006.36
2018-12-10T09:17:56.390Z,1006.42
2018-12-10T09:18:35.389Z,1006.32
2018-12-10T09:19:35.400Z,1006.38
2018-12-10T09:20:35.430Z,1006.29
2018-12-10T09:21:35.480Z,1006.41
2018-12-10T09:22:35.460Z,1006.32
2018-12-10T09:23:56.518Z,1006.43
2018-12-10T09:24:35.515Z,1006.37
2018-12-10T09:25:35.549Z,1006.52
2018-12-10T09:26:35.551Z,1006.46
2018-12-10T09:27:35.574Z,1006.38
2018-12-10T09:28:35.618Z,1006.42
2018-12-10T09:29:56.637Z,1006.44
2018-12-10T09:30:35.634Z,1006.48
2018-12-10T09:31:35.661Z,1006.48
2018-12-10T09:32:35.690Z,1006.55
2018-12-10T09:33:35.684Z,1006.56
2018-12-10T09:34:35.707Z,1006.62
2018-12-10T09:35:56.749Z,1006.54
2018-12-10T09:36:35.756Z,1006.57
2018-12-10T09:37:35.777Z,1006.57
2018-12-10T09:38:35.777Z,1006.61
2018-12-10T09:39:35.811Z,1006.62
2018-12-10T09:40:35.825Z,1006.63
2018-12-10T09:41:56.853Z,1006.60
2018-12-10T09:42:35.870Z,1006.58
2018-12-10T09:43:35.879Z,1006.53
2018-12-10T09:44:35.908Z,1006.56
2018-12-10T09:45:36.013Z,1006.62
2018-12-10T09:46:35.969Z,1006.57
2018-12-10T09:47:56.991Z,1006.62
2018-12-10T09:48:36.047Z,1006.64
2018-12-10T09:49:36.163Z,1006.66
2018-12-10T09:50:36.031Z,1006.63
2018-12-10T09:51:36.065Z,1006.53
2018-12-10T09:52:36.108Z,1006.56
2018-12-10T09:53:57.112Z,1006.52
2018-12-10T09:54:36.092Z,1006.56
2018-12-10T09:55:36.135Z,1006.56
2018-12-10T09:56:36.144Z,1006.78
2018-12-10T09:57:36.184Z,1006.58
2018-12-10T09:58:36.265Z,1006.67
2018-12-10T09:59:57.222Z,1006.66
2018-12-10T10:00:36.236Z,1006.66
2018-12-10T10:01:36.247Z,1006.69
2018-12-10T10:02:36.256Z,1006.68
2018-12-10T10:03:36.304Z,1006.81
2018-12-10T10:04:36.308Z,1006.74
2018-12-10T10:05:57.338Z,1006.70
2018-12-10T10:06:36.346Z,1006.84
2018-12-10T10:07:36.350Z,1006.80
2018-12-10T10:08:36.398Z,1006.75
2018-12-10T10:09:36.403Z,1006.79
2018-12-10T10:10:36.412Z,1006.83
2018-12-10T10:11:57.450Z,1006.80
2018-12-10T10:12:36.486Z,1006.78
2018-12-10T10:13:36.494Z,1006.80
2018-12-10T10:14:36.528Z,1006.84
2018-12-10T10:15:36.519Z,1006.83
2018-12-10T10:16:36.561Z,1006.94
2018-12-10T10:17:58.901Z,1006.88
2018-12-10T10:18:36.581Z,1006.71
2018-12-10T10:19:36.618Z,1006.86
2018-12-10T10:20:36.626Z,1006.82
2018-12-10T10:21:36.658Z,1006.89
2018-12-10T10:22:36.667Z,1006.81
2018-12-10T10:23:59.535Z,1006.84
2018-12-10T10:24:36.712Z,1006.84
2018-12-10T10:25:36.723Z,1006.86
2018-12-10T10:26:36.766Z,1006.91
2018-12-10T10:27:36.774Z,1006.83
2018-12-10T10:28:36.781Z,1006.88
2018-12-10T10:29:57.818Z,1006.87
2018-12-10T10:30:36.820Z,1006.84
2018-12-10T10:31:36.871Z,1006.82
2018-12-10T10:32:36.876Z,1006.92
2018-12-10T10:33:36.923Z,1006.89
2018-12-10T10:34:36.958Z,1006.92
2018-12-10T10:35:57.954Z,1006.94
2018-12-10T10:36:36.991Z,1006.90
2018-12-10T10:37:36.967Z,1006.90
2018-12-10T10:38:37.003Z,1006.95
2018-12-10T10:39:37.028Z,1006.97
2018-12-10T10:40:37.029Z,1006.90
2018-12-10T10:41:58.073Z,1006.90
2018-12-10T10:42:37.080Z,1006.93
2018-12-10T10:43:37.091Z,1006.87
2018-12-10T10:44:37.119Z,1006.94
2018-12-10T10:45:37.140Z,1006.90
2018-12-10T10:46:37.173Z,1006.95
2018-12-10T10:47:58.183Z,1006.97
2018-12-10T10:48:37.193Z,1006.91
2018-12-10T10:49:37.200Z,1006.93
2018-12-10T10:50:37.238Z,1006.94
2018-12-10T10:51:37.251Z,1006.94
2018-12-10T10:52:37.288Z,1006.78
2018-12-10T10:53:58.324Z,1006.96
2018-12-10T10:54:37.302Z,1006.94
2018-12-10T10:55:37.350Z,1006.89
2018-12-10T10:56:37.348Z,1006.95
2018-12-10T10:57:37.360Z,1006.88
2018-12-10T10:58:37.401Z,1006.91
2018-12-10T10:59:58.428Z,1006.92
2018-12-10T11:00:37.443Z,1006.91
2018-12-10T11:01:37.449Z,1006.88
2018-12-10T11:02:37.462Z,1007.07
2018-12-10T11:03:37.500Z,1006.86
2018-12-10T11:04:38.014Z,1006.90
2018-12-10T11:05:58.548Z,1006.98
2018-12-10T11:06:37.566Z,1006.91
2018-12-10T11:07:37.571Z,1006.88
2018-12-10T11:08:37.600Z,1006.82
2018-12-10T11:09:37.638Z,1006.95
2018-12-10T11:10:37.689Z,1006.85
2018-12-10T11:11:58.705Z,1006.96
2018-12-10T11:12:37.673Z,1006.99
2018-12-10T11:13:37.713Z,1006.97
2018-12-10T11:14:37.725Z,1006.94
2018-12-10T11:15:37.755Z,1006.96
2018-12-10T11:16:37.757Z,1006.94
2018-12-10T11:17:58.805Z,1006.89
2018-12-10T11:18:37.799Z,1006.91
2018-12-10T11:19:37.822Z,1006.84
2018-12-10T11:20:37.832Z,1006.95
2018-12-10T11:21:37.842Z,1006.86
2018-12-10T11:22:37.870Z,1006.91
2018-12-10T11:23:58.907Z,1006.90
2018-12-10T11:24:37.915Z,1006.93
2018-12-10T11:25:37.964Z,1006.85
2018-12-10T11:26:37.963Z,1006.87
2018-12-10T11:27:37.984Z,1006.96
2018-12-10T11:28:37.990Z,1006.97
2018-12-10T11:29:59.119Z,1006.90
2018-12-10T11:30:38.045Z,1006.93
2018-12-10T11:31:38.058Z,1007.00
2018-12-10T11:32:38.089Z,1006.96
2018-12-10T11:33:38.138Z,1006.96
2018-12-10T11:34:38.127Z,1006.87
2018-12-10T11:35:59.181Z,1006.95
2018-12-10T11:36:38.218Z,1007.01
2018-12-10T11:37:38.166Z,1006.91
2018-12-10T11:38:38.197Z,1006.93
2018-12-10T11:39:38.215Z,1007.03
2018-12-10T11:40:38.251Z,1006.84
2018-12-10T11:41:59.291Z,1006.91
2018-12-10T11:42:38.357Z,1006.95
2018-12-10T11:43:38.291Z,1006.97
2018-12-10T11:44:38.318Z,1006.96
2018-12-10T11:45:38.349Z,1006.90
2018-12-10T11:46:38.389Z,1006.94
2018-12-10T11:47:59.436Z,1006.93
2018-12-10T11:48:38.409Z,1006.84
2018-12-10T11:49:38.495Z,1006.92
2018-12-10T11:50:38.512Z,1006.97
2018-12-10T11:51:38.471Z,1006.91
2018-12-10T11:52:38.496Z,1006.83
2018-12-10T11:53:59.505Z,1006.97
2018-12-10T11:54:38.510Z,1006.95
2018-12-10T11:55:38.527Z,1006.92
2018-12-10T11:56:38.576Z,1006.96
2018-12-10T11:57:38.588Z,1006.94
2018-12-10T11:58:38.647Z,1006.96
2018-12-10T11:59:59.628Z,1006.96
2018-12-10T12:00:38.634Z,1006.97
2018-12-10T12:01:38.648Z,1006.99
2018-12-10T12:02:38.673Z,1006.95
2018-12-10T12:03:38.720Z,1006.90
2018-12-10T12:04:38.714Z,1006.90
2018-12-10T12:05:59.787Z,1007.00
2018-12-10T12:06:38.752Z,1006.95
2018-12-10T12:07:38.795Z,1006.92
2018-12-10T12:08:38.791Z,1006.89
2018-12-10T12:09:38.806Z,1006.90
2018-12-10T12:10:38.835Z,1006.86